sensor_id;sensor_type;location;lat;lon;timestamp;pressure;altitude;pressure_sealevel;temperature;humidity
22647;BME280;11490;42.726;23.268;2023-08-30T00:00:04;94333.81;;;22.20;88.34
22647;BME280;11490;42.726;23.268;2023-08-30T00:02:30;94324.28;;;22.14;88.43
22647;BME280;11490;42.726;23.268;2023-08-30T00:04:59;94322.53;;;22.09;88.91
22647;BME280;11490;42.726;23.268;2023-08-30T00:09:50;94331.13;;;22.32;86.89
22647;BME280;11490;42.726;23.268;2023-08-30T00:12:16;94310.09;;;22.29;86.17
22647;BME280;11490;42.726;23.268;2023-08-30T00:14:41;94323.19;;;22.27;86.65
22647;BME280;11490;42.726;23.268;2023-08-30T00:17:07;94310.56;;;22.10;85.93
22647;BME280;11490;42.726;23.268;2023-08-30T00:19:32;94333.28;;;22.06;86.58
22647;BME280;11490;42.726;23.268;2023-08-30T00:21:58;94345.66;;;21.65;88.63
22647;BME280;11490;42.726;23.268;2023-08-30T00:24:23;94330.06;;;21.83;88.02
22647;BME280;11490;42.726;23.268;2023-08-30T00:26:49;94334.13;;;21.68;90.08
22647;BME280;11490;42.726;23.268;2023-08-30T00:29:14;94334.75;;;21.95;88.40
22647;BME280;11490;42.726;23.268;2023-08-30T00:31:39;94335.00;;;22.10;86.98
22647;BME280;11490;42.726;23.268;2023-08-30T00:34:05;94314.06;;;22.11;86.41
22647;BME280;11490;42.726;23.268;2023-08-30T00:36:30;94326.53;;;22.12;86.92
22647;BME280;11490;42.726;23.268;2023-08-30T00:38:56;94325.00;;;21.94;86.31
22647;BME280;11490;42.726;23.268;2023-08-30T00:41:21;94316.25;;;21.67;87.78
22647;BME280;11490;42.726;23.268;2023-08-30T00:43:47;94318.66;;;21.89;86.07
22647;BME280;11490;42.726;23.268;2023-08-30T00:46:13;94318.13;;;21.75;86.38
22647;BME280;11490;42.726;23.268;2023-08-30T00:48:39;94315.75;;;21.95;86.41
22647;BME280;11490;42.726;23.268;2023-08-30T00:51:04;94319.03;;;21.79;85.58
22647;BME280;11490;42.726;23.268;2023-08-30T00:53:30;94336.41;;;21.87;85.14
22647;BME280;11490;42.726;23.268;2023-08-30T00:55:55;94340.81;;;21.41;87.87
22647;BME280;11490;42.726;23.268;2023-08-30T00:58:21;94344.66;;;21.40;86.15
22647;BME280;11490;42.726;23.268;2023-08-30T01:00:47;94319.78;;;21.30;86.98
22647;BME280;11490;42.726;23.268;2023-08-30T01:03:12;94336.56;;;21.32;85.73
22647;BME280;11490;42.726;23.268;2023-08-30T01:05:38;94321.59;;;21.26;86.18
22647;BME280;11490;42.726;23.268;2023-08-30T01:08:04;94334.03;;;21.27;86.75
22647;BME280;11490;42.726;23.268;2023-08-30T01:16:18;94341.94;;;21.40;84.47
22647;BME280;11490;42.726;23.268;2023-08-30T01:18:45;94344.66;;;21.40;84.27
22647;BME280;11490;42.726;23.268;2023-08-30T01:21:19;94353.13;;;21.39;84.63
22647;BME280;11490;42.726;23.268;2023-08-30T01:23:58;94346.84;;;21.47;84.46
22647;BME280;11490;42.726;23.268;2023-08-30T01:26:34;94353.75;;;21.44;84.79
22647;BME280;11490;42.726;23.268;2023-08-30T01:29:03;94365.47;;;21.57;83.70
22647;BME280;11490;42.726;23.268;2023-08-30T01:31:32;94365.19;;;21.50;84.17
22647;BME280;11490;42.726;23.268;2023-08-30T01:34:00;94360.41;;;21.47;84.23
22647;BME280;11490;42.726;23.268;2023-08-30T01:36:27;94345.44;;;21.41;83.90
22647;BME280;11490;42.726;23.268;2023-08-30T01:38:53;94352.59;;;21.45;83.78
22647;BME280;11490;42.726;23.268;2023-08-30T01:41:19;94335.16;;;21.55;83.84
22647;BME280;11490;42.726;23.268;2023-08-30T01:43:46;94328.28;;;21.58;83.26
22647;BME280;11490;42.726;23.268;2023-08-30T01:46:13;94326.38;;;21.58;83.20
22647;BME280;11490;42.726;23.268;2023-08-30T01:48:39;94351.72;;;21.62;83.62
22647;BME280;11490;42.726;23.268;2023-08-30T01:51:06;94342.19;;;21.56;84.02
22647;BME280;11490;42.726;23.268;2023-08-30T01:53:34;94337.50;;;21.36;85.31
22647;BME280;11490;42.726;23.268;2023-08-30T01:56:00;94350.88;;;21.41;85.09
22647;BME280;11490;42.726;23.268;2023-08-30T01:58:26;94339.38;;;21.44;85.50
22647;BME280;11490;42.726;23.268;2023-08-30T02:00:52;94343.50;;;21.50;86.11
22647;BME280;11490;42.726;23.268;2023-08-30T02:03:17;94346.69;;;21.52;85.03
22647;BME280;11490;42.726;23.268;2023-08-30T02:06:01;94343.34;;;21.46;84.86
22647;BME280;11490;42.726;23.268;2023-08-30T02:08:35;94356.38;;;21.06;87.56
22647;BME280;11490;42.726;23.268;2023-08-30T02:11:07;94358.38;;;21.44;85.77
22647;BME280;11490;42.726;23.268;2023-08-30T02:13:33;94358.81;;;21.46;85.68
22647;BME280;11490;42.726;23.268;2023-08-30T02:16:00;94344.81;;;21.44;85.73
22647;BME280;11490;42.726;23.268;2023-08-30T02:18:26;94342.19;;;21.56;84.85
22647;BME280;11490;42.726;23.268;2023-08-30T02:20:52;94348.34;;;21.36;85.96
22647;BME280;11490;42.726;23.268;2023-08-30T02:23:18;94352.66;;;21.37;85.80
22647;BME280;11490;42.726;23.268;2023-08-30T02:25:44;94345.97;;;21.34;86.46
22647;BME280;11490;42.726;23.268;2023-08-30T02:28:10;94341.06;;;21.28;87.08
22647;BME280;11490;42.726;23.268;2023-08-30T02:30:35;94333.06;;;21.14;87.28
22647;BME280;11490;42.726;23.268;2023-08-30T02:33:01;94340.59;;;21.17;87.25
22647;BME280;11490;42.726;23.268;2023-08-30T02:35:26;94328.13;;;21.16;87.37
22647;BME280;11490;42.726;23.268;2023-08-30T02:37:51;94336.25;;;21.25;86.91
22647;BME280;11490;42.726;23.268;2023-08-30T02:40:17;94323.22;;;21.09;87.72
22647;BME280;11490;42.726;23.268;2023-08-30T02:42:42;94335.38;;;21.03;88.34
22647;BME280;11490;42.726;23.268;2023-08-30T02:45:08;94322.81;;;20.90;89.15
22647;BME280;11490;42.726;23.268;2023-08-30T02:47:34;94319.56;;;21.05;88.30
22647;BME280;11490;42.726;23.268;2023-08-30T02:49:59;94316.06;;;21.05;87.69
22647;BME280;11490;42.726;23.268;2023-08-30T02:52:25;94325.59;;;20.56;89.86
22647;BME280;11490;42.726;23.268;2023-08-30T02:54:50;94325.59;;;20.56;91.37
22647;BME280;11490;42.726;23.268;2023-08-30T02:57:16;94323.81;;;20.68;90.03
22647;BME280;11490;42.726;23.268;2023-08-30T02:59:41;94318.56;;;20.72;89.32
22647;BME280;11490;42.726;23.268;2023-08-30T03:02:06;94296.88;;;20.72;88.40
22647;BME280;11490;42.726;23.268;2023-08-30T03:04:32;94315.00;;;20.89;87.49
22647;BME280;11490;42.726;23.268;2023-08-30T03:06:57;94307.50;;;20.86;87.01
22647;BME280;11490;42.726;23.268;2023-08-30T03:09:23;94316.47;;;20.78;87.03
22647;BME280;11490;42.726;23.268;2023-08-30T03:11:48;94312.66;;;20.70;86.33
22647;BME280;11490;42.726;23.268;2023-08-30T03:14:14;94341.66;;;20.69;86.61
22647;BME280;11490;42.726;23.268;2023-08-30T03:16:41;94344.06;;;20.71;86.65
22647;BME280;11490;42.726;23.268;2023-08-30T03:19:08;94332.59;;;20.74;85.88
22647;BME280;11490;42.726;23.268;2023-08-30T03:21:33;94328.25;;;20.82;85.59
22647;BME280;11490;42.726;23.268;2023-08-30T03:23:59;94326.50;;;20.77;84.57
22647;BME280;11490;42.726;23.268;2023-08-30T03:26:24;94308.22;;;20.65;84.79
22647;BME280;11490;42.726;23.268;2023-08-30T03:28:50;94306.91;;;20.71;84.75
22647;BME280;11490;42.726;23.268;2023-08-30T03:33:42;94318.09;;;20.53;85.21
22647;BME280;11490;42.726;23.268;2023-08-30T03:36:11;94297.88;;;20.59;85.46
22647;BME280;11490;42.726;23.268;2023-08-30T03:38:37;94309.53;;;20.51;86.09
22647;BME280;11490;42.726;23.268;2023-08-30T03:41:03;94313.63;;;20.65;85.43
22647;BME280;11490;42.726;23.268;2023-08-30T03:43:29;94303.94;;;20.56;86.04
22647;BME280;11490;42.726;23.268;2023-08-30T03:45:55;94301.03;;;20.61;85.70
22647;BME280;11490;42.726;23.268;2023-08-30T03:48:20;94293.28;;;20.51;86.07
22647;BME280;11490;42.726;23.268;2023-08-30T03:50:45;94298.53;;;20.39;86.05
22647;BME280;11490;42.726;23.268;2023-08-30T03:53:11;94316.03;;;20.32;86.84
22647;BME280;11490;42.726;23.268;2023-08-30T03:55:36;94333.25;;;20.54;86.55
22647;BME280;11490;42.726;23.268;2023-08-30T03:58:02;94323.06;;;20.51;85.72
22647;BME280;11490;42.726;23.268;2023-08-30T04:00:28;94333.91;;;20.51;86.78
22647;BME280;11490;42.726;23.268;2023-08-30T04:02:53;94335.50;;;20.52;87.44
22647;BME280;11490;42.726;23.268;2023-08-30T04:05:19;94324.16;;;20.58;86.01
22647;BME280;11490;42.726;23.268;2023-08-30T04:07:44;94334.22;;;20.58;86.44
22647;BME280;11490;42.726;23.268;2023-08-30T04:10:10;94324.50;;;20.40;86.67
22647;BME280;11490;42.726;23.268;2023-08-30T04:12:35;94307.56;;;20.60;86.17
22647;BME280;11490;42.726;23.268;2023-08-30T04:15:04;94325.47;;;20.35;87.62
22647;BME280;11490;42.726;23.268;2023-08-30T04:17:29;94333.06;;;19.98;88.95
22647;BME280;11490;42.726;23.268;2023-08-30T04:19:55;94355.25;;;20.26;89.17
22647;BME280;11490;42.726;23.268;2023-08-30T04:22:20;94357.00;;;20.57;89.54
22647;BME280;11490;42.726;23.268;2023-08-30T04:24:46;94370.63;;;20.95;87.71
22647;BME280;11490;42.726;23.268;2023-08-30T04:27:12;94363.56;;;21.11;86.41
22647;BME280;11490;42.726;23.268;2023-08-30T04:29:37;94363.88;;;21.09;86.38
22647;BME280;11490;42.726;23.268;2023-08-30T04:32:03;94388.00;;;21.02;87.15
22647;BME280;11490;42.726;23.268;2023-08-30T04:34:28;94407.47;;;21.04;88.65
22647;BME280;11490;42.726;23.268;2023-08-30T04:36:55;94418.94;;;21.19;88.17
22647;BME280;11490;42.726;23.268;2023-08-30T04:39:21;94434.19;;;21.32;86.78
22647;BME280;11490;42.726;23.268;2023-08-30T04:41:46;94413.53;;;20.84;88.13
22647;BME280;11490;42.726;23.268;2023-08-30T04:44:11;94409.06;;;21.05;85.86
22647;BME280;11490;42.726;23.268;2023-08-30T04:46:37;94406.50;;;21.18;85.10
22647;BME280;11490;42.726;23.268;2023-08-30T04:49:02;94422.13;;;21.03;84.74
22647;BME280;11490;42.726;23.268;2023-08-30T04:51:28;94435.69;;;21.03;85.41
22647;BME280;11490;42.726;23.268;2023-08-30T04:53:54;94411.63;;;20.76;84.48
22647;BME280;11490;42.726;23.268;2023-08-30T04:56:19;94417.03;;;20.93;84.23
22647;BME280;11490;42.726;23.268;2023-08-30T04:58:44;94406.84;;;20.90;84.55
22647;BME280;11490;42.726;23.268;2023-08-30T05:01:10;94382.28;;;20.95;85.71
22647;BME280;11490;42.726;23.268;2023-08-30T05:03:38;94371.75;;;20.85;85.60
22647;BME280;11490;42.726;23.268;2023-08-30T05:06:04;94389.66;;;20.69;87.35
22647;BME280;11490;42.726;23.268;2023-08-30T05:08:30;94399.38;;;20.61;88.69
22647;BME280;11490;42.726;23.268;2023-08-30T05:10:55;94401.78;;;20.46;88.70
22647;BME280;11490;42.726;23.268;2023-08-30T05:13:21;94383.75;;;20.15;89.35
22647;BME280;11490;42.726;23.268;2023-08-30T05:15:46;94407.94;;;20.03;87.80
22647;BME280;11490;42.726;23.268;2023-08-30T05:18:11;94405.72;;;20.22;88.66
22647;BME280;11490;42.726;23.268;2023-08-30T05:20:37;94400.31;;;20.31;88.25
22647;BME280;11490;42.726;23.268;2023-08-30T05:23:02;94405.13;;;20.43;87.42
22647;BME280;11490;42.726;23.268;2023-08-30T05:25:28;94408.47;;;20.74;86.26
22647;BME280;11490;42.726;23.268;2023-08-30T05:27:53;94405.41;;;20.75;86.68
22647;BME280;11490;42.726;23.268;2023-08-30T05:30:19;94406.69;;;20.87;85.96
22647;BME280;11490;42.726;23.268;2023-08-30T05:32:44;94407.75;;;21.11;84.28
22647;BME280;11490;42.726;23.268;2023-08-30T05:35:10;94415.06;;;21.37;82.52
22647;BME280;11490;42.726;23.268;2023-08-30T05:37:35;94408.13;;;21.48;81.83
22647;BME280;11490;42.726;23.268;2023-08-30T05:40:01;94413.31;;;21.70;81.74
22647;BME280;11490;42.726;23.268;2023-08-30T05:42:26;94409.81;;;21.99;78.90
22647;BME280;11490;42.726;23.268;2023-08-30T05:44:53;94395.81;;;22.18;78.95
22647;BME280;11490;42.726;23.268;2023-08-30T05:47:19;94401.91;;;22.56;76.42
22647;BME280;11490;42.726;23.268;2023-08-30T05:49:45;94410.72;;;22.53;74.01
22647;BME280;11490;42.726;23.268;2023-08-30T05:52:10;94401.88;;;22.98;73.42
22647;BME280;11490;42.726;23.268;2023-08-30T05:54:36;94409.44;;;22.72;73.07
22647;BME280;11490;42.726;23.268;2023-08-30T05:57:01;94404.84;;;23.38;72.61
22647;BME280;11490;42.726;23.268;2023-08-30T05:59:27;94392.16;;;23.54;71.13
22647;BME280;11490;42.726;23.268;2023-08-30T06:01:55;94406.34;;;23.60;71.00
22647;BME280;11490;42.726;23.268;2023-08-30T06:04:23;94377.41;;;23.55;71.01
22647;BME280;11490;42.726;23.268;2023-08-30T06:06:49;94410.91;;;24.04;69.90
22647;BME280;11490;42.726;23.268;2023-08-30T06:09:14;94403.41;;;23.53;70.24
22647;BME280;11490;42.726;23.268;2023-08-30T06:11:40;94397.91;;;23.40;71.63
22647;BME280;11490;42.726;23.268;2023-08-30T06:14:05;94397.84;;;23.86;70.29
22647;BME280;11490;42.726;23.268;2023-08-30T06:16:31;94396.56;;;24.44;67.87
22647;BME280;11490;42.726;23.268;2023-08-30T06:18:57;94408.78;;;24.62;67.24
22647;BME280;11490;42.726;23.268;2023-08-30T06:21:24;94404.53;;;24.77;66.23
22647;BME280;11490;42.726;23.268;2023-08-30T06:23:50;94413.25;;;24.82;66.73
22647;BME280;11490;42.726;23.268;2023-08-30T06:26:15;94415.25;;;24.98;66.69
22647;BME280;11490;42.726;23.268;2023-08-30T06:28:41;94418.25;;;24.92;67.25
22647;BME280;11490;42.726;23.268;2023-08-30T06:31:06;94417.31;;;24.88;67.29
22647;BME280;11490;42.726;23.268;2023-08-30T06:33:31;94421.56;;;24.46;68.91
22647;BME280;11490;42.726;23.268;2023-08-30T06:35:57;94419.63;;;24.34;69.73
22647;BME280;11490;42.726;23.268;2023-08-30T06:38:22;94426.31;;;24.00;69.87
22647;BME280;11490;42.726;23.268;2023-08-30T06:40:48;94422.50;;;23.77;70.42
22647;BME280;11490;42.726;23.268;2023-08-30T06:43:14;94429.03;;;23.52;70.59
22647;BME280;11490;42.726;23.268;2023-08-30T06:45:41;94417.19;;;23.35;71.25
22647;BME280;11490;42.726;23.268;2023-08-30T06:48:06;94424.66;;;23.38;72.27
22647;BME280;11490;42.726;23.268;2023-08-30T06:50:33;94425.34;;;23.35;71.53
22647;BME280;11490;42.726;23.268;2023-08-30T06:52:58;94425.34;;;23.35;71.56
22647;BME280;11490;42.726;23.268;2023-08-30T06:55:23;94433.50;;;23.35;71.03
22647;BME280;11490;42.726;23.268;2023-08-30T06:57:49;94427.03;;;23.28;74.14
22647;BME280;11490;42.726;23.268;2023-08-30T07:00:17;94432.63;;;23.44;73.81
22647;BME280;11490;42.726;23.268;2023-08-30T07:02:43;94423.50;;;23.27;74.38
22647;BME280;11490;42.726;23.268;2023-08-30T07:05:11;94432.88;;;23.51;73.48
22647;BME280;11490;42.726;23.268;2023-08-30T07:07:37;94422.63;;;23.35;74.65
22647;BME280;11490;42.726;23.268;2023-08-30T07:10:02;94420.06;;;23.18;74.08
22647;BME280;11490;42.726;23.268;2023-08-30T07:12:28;94419.66;;;23.40;72.31
22647;BME280;11490;42.726;23.268;2023-08-30T07:14:54;94416.13;;;23.73;72.30
22647;BME280;11490;42.726;23.268;2023-08-30T07:17:19;94420.41;;;23.86;71.73
22647;BME280;11490;42.726;23.268;2023-08-30T07:19:45;94418.16;;;24.25;69.98
22647;BME280;11490;42.726;23.268;2023-08-30T07:22:10;94407.13;;;24.33;71.27
22647;BME280;11490;42.726;23.268;2023-08-30T07:24:36;94408.38;;;24.24;72.28
22647;BME280;11490;42.726;23.268;2023-08-30T07:27:02;94417.22;;;24.33;70.19
22647;BME280;11490;42.726;23.268;2023-08-30T07:29:27;94419.16;;;24.44;69.57
22647;BME280;11490;42.726;23.268;2023-08-30T07:31:53;94414.16;;;24.46;69.65
22647;BME280;11490;42.726;23.268;2023-08-30T07:34:19;94420.53;;;24.90;68.74
22647;BME280;11490;42.726;23.268;2023-08-30T07:36:45;94424.28;;;25.14;65.34
22647;BME280;11490;42.726;23.268;2023-08-30T07:39:10;94423.00;;;25.23;65.08
22647;BME280;11490;42.726;23.268;2023-08-30T07:41:36;94419.59;;;24.99;65.08
22647;BME280;11490;42.726;23.268;2023-08-30T07:44:01;94427.31;;;25.40;66.76
22647;BME280;11490;42.726;23.268;2023-08-30T07:46:28;94428.84;;;25.38;66.13
22647;BME280;11490;42.726;23.268;2023-08-30T07:48:53;94413.81;;;25.59;65.21
22647;BME280;11490;42.726;23.268;2023-08-30T07:51:19;94419.91;;;25.68;66.32
22647;BME280;11490;42.726;23.268;2023-08-30T07:53:44;94412.91;;;25.87;63.37
22647;BME280;11490;42.726;23.268;2023-08-30T07:56:10;94409.16;;;25.76;64.68
22647;BME280;11490;42.726;23.268;2023-08-30T07:58:35;94420.34;;;25.71;64.87
22647;BME280;11490;42.726;23.268;2023-08-30T08:01:01;94427.28;;;26.15;63.32
22647;BME280;11490;42.726;23.268;2023-08-30T08:03:26;94426.66;;;26.37;62.12
22647;BME280;11490;42.726;23.268;2023-08-30T08:05:51;94434.03;;;26.53;59.41
22647;BME280;11490;42.726;23.268;2023-08-30T08:08:17;94437.88;;;26.32;60.96
22647;BME280;11490;42.726;23.268;2023-08-30T08:10:43;94434.03;;;26.72;62.06
22647;BME280;11490;42.726;23.268;2023-08-30T08:13:09;94432.31;;;26.83;59.70
22647;BME280;11490;42.726;23.268;2023-08-30T08:15:34;94428.25;;;27.12;59.16
22647;BME280;11490;42.726;23.268;2023-08-30T08:18:00;94432.34;;;27.22;59.05
22647;BME280;11490;42.726;23.268;2023-08-30T08:20:26;94438.53;;;27.18;58.32
22647;BME280;11490;42.726;23.268;2023-08-30T08:22:52;94431.28;;;27.07;57.23
22647;BME280;11490;42.726;23.268;2023-08-30T08:25:17;94435.53;;;27.04;57.62
22647;BME280;11490;42.726;23.268;2023-08-30T08:27:43;94437.25;;;27.32;57.67
22647;BME280;11490;42.726;23.268;2023-08-30T08:30:12;94419.59;;;27.29;56.72
22647;BME280;11490;42.726;23.268;2023-08-30T08:32:37;94417.47;;;27.42;57.50
22647;BME280;11490;42.726;23.268;2023-08-30T08:35:03;94421.03;;;27.88;55.79
22647;BME280;11490;42.726;23.268;2023-08-30T08:37:30;94428.50;;;28.14;52.17
22647;BME280;11490;42.726;23.268;2023-08-30T08:39:56;94445.22;;;28.54;49.52
22647;BME280;11490;42.726;23.268;2023-08-30T08:42:21;94439.84;;;28.61;50.04
22647;BME280;11490;42.726;23.268;2023-08-30T08:44:47;94436.13;;;28.50;50.21
22647;BME280;11490;42.726;23.268;2023-08-30T08:47:16;94442.47;;;28.81;49.98
22647;BME280;11490;42.726;23.268;2023-08-30T08:49:44;94420.66;;;28.65;46.53
22647;BME280;11490;42.726;23.268;2023-08-30T08:52:09;94435.50;;;28.34;48.05
22647;BME280;11490;42.726;23.268;2023-08-30T08:54:37;94439.41;;;28.59;48.25
22647;BME280;11490;42.726;23.268;2023-08-30T08:57:05;94415.13;;;28.88;46.96
22647;BME280;11490;42.726;23.268;2023-08-30T08:59:31;94430.03;;;28.87;48.88
22647;BME280;11490;42.726;23.268;2023-08-30T09:01:56;94423.56;;;29.02;49.54
22647;BME280;11490;42.726;23.268;2023-08-30T09:04:23;94414.72;;;29.53;45.77
22647;BME280;11490;42.726;23.268;2023-08-30T09:06:49;94406.47;;;29.19;47.25
22647;BME280;11490;42.726;23.268;2023-08-30T09:09:15;94412.16;;;29.33;46.32
22647;BME280;11490;42.726;23.268;2023-08-30T09:11:40;94408.19;;;29.31;47.45
22647;BME280;11490;42.726;23.268;2023-08-30T09:14:06;94412.88;;;29.30;46.69
22647;BME280;11490;42.726;23.268;2023-08-30T09:16:33;94411.59;;;29.21;47.06
22647;BME280;11490;42.726;23.268;2023-08-30T09:21:24;94402.13;;;29.52;47.53
22647;BME280;11490;42.726;23.268;2023-08-30T09:24:06;94409.50;;;29.81;48.21
22647;BME280;11490;42.726;23.268;2023-08-30T09:26:33;94418.13;;;30.23;46.99
22647;BME280;11490;42.726;23.268;2023-08-30T09:29:05;94416.91;;;30.17;46.55
22647;BME280;11490;42.726;23.268;2023-08-30T09:31:37;94415.53;;;29.97;47.69
22647;BME280;11490;42.726;23.268;2023-08-30T09:34:03;94403.84;;;29.30;45.95
22647;BME280;11490;42.726;23.268;2023-08-30T09:36:42;94418.31;;;29.23;47.99
22647;BME280;11490;42.726;23.268;2023-08-30T09:39:12;94416.16;;;29.80;47.78
22647;BME280;11490;42.726;23.268;2023-08-30T09:41:42;94405.47;;;30.15;46.64
22647;BME280;11490;42.726;23.268;2023-08-30T09:44:15;94409.97;;;30.38;45.93
22647;BME280;11490;42.726;23.268;2023-08-30T09:46:50;94412.03;;;30.00;44.49
22647;BME280;11490;42.726;23.268;2023-08-30T09:49:22;94408.88;;;29.98;46.58
22647;BME280;11490;42.726;23.268;2023-08-30T09:51:48;94402.03;;;30.26;46.08
22647;BME280;11490;42.726;23.268;2023-08-30T09:54:19;94403.56;;;30.19;46.24
22647;BME280;11490;42.726;23.268;2023-08-30T09:56:45;94399.28;;;30.26;45.26
22647;BME280;11490;42.726;23.268;2023-08-30T09:59:12;94389.44;;;30.28;44.91
22647;BME280;11490;42.726;23.268;2023-08-30T10:01:40;94380.78;;;30.22;44.93
22647;BME280;11490;42.726;23.268;2023-08-30T10:04:07;94389.84;;;30.27;45.53
22647;BME280;11490;42.726;23.268;2023-08-30T10:06:35;94369.56;;;29.94;45.75
22647;BME280;11490;42.726;23.268;2023-08-30T10:09:01;94366.59;;;30.20;46.68
22647;BME280;11490;42.726;23.268;2023-08-30T10:11:29;94393.50;;;30.45;46.56
22647;BME280;11490;42.726;23.268;2023-08-30T10:13:55;94384.38;;;29.82;44.96
22647;BME280;11490;42.726;23.268;2023-08-30T10:16:24;94368.22;;;30.25;44.76
22647;BME280;11490;42.726;23.268;2023-08-30T11:34:26;94311.38;;;29.89;33.91
22647;BME280;11490;42.726;23.268;2023-08-30T11:36:52;94312.38;;;30.17;35.67
22647;BME280;11490;42.726;23.268;2023-08-30T11:39:19;94324.16;;;30.18;35.61
22647;BME280;11490;42.726;23.268;2023-08-30T11:41:46;94311.50;;;30.06;34.83
22647;BME280;11490;42.726;23.268;2023-08-30T11:44:11;94305.97;;;29.99;32.82
22647;BME280;11490;42.726;23.268;2023-08-30T11:46:37;94309.22;;;30.15;33.74
22647;BME280;11490;42.726;23.268;2023-08-30T11:50:12;94306.44;;;30.15;33.81
22647;BME280;11490;42.726;23.268;2023-08-30T11:52:38;94305.41;;;30.38;32.94
22647;BME280;11490;42.726;23.268;2023-08-30T11:55:05;94294.31;;;30.23;32.33
22647;BME280;11490;42.726;23.268;2023-08-30T11:57:38;94296.13;;;29.98;33.54
22647;BME280;11490;42.726;23.268;2023-08-30T12:00:11;94299.84;;;30.31;33.94
22647;BME280;11490;42.726;23.268;2023-08-30T12:02:37;94288.94;;;29.83;33.95
22647;BME280;11490;42.726;23.268;2023-08-30T12:05:03;94287.91;;;30.05;34.48
22647;BME280;11490;42.726;23.268;2023-08-30T12:07:29;94291.97;;;30.26;33.98
22647;BME280;11490;42.726;23.268;2023-08-30T12:10:11;94295.75;;;29.96;34.53
22647;BME280;11490;42.726;23.268;2023-08-30T12:12:37;94283.94;;;29.96;33.29
22647;BME280;11490;42.726;23.268;2023-08-30T12:15:14;94275.38;;;30.04;33.38
22647;BME280;11490;42.726;23.268;2023-08-30T12:17:42;94267.50;;;30.06;34.39
22647;BME280;11490;42.726;23.268;2023-08-30T12:20:17;94248.06;;;29.78;33.95
22647;BME280;11490;42.726;23.268;2023-08-30T12:22:45;94263.81;;;29.84;34.29
22647;BME280;11490;42.726;23.268;2023-08-30T12:25:20;94269.06;;;30.07;34.07
22647;BME280;11490;42.726;23.268;2023-08-30T12:27:46;94257.28;;;30.07;32.25
22647;BME280;11490;42.726;23.268;2023-08-30T12:30:13;94271.94;;;30.25;31.90
22647;BME280;11490;42.726;23.268;2023-08-30T12:32:40;94262.91;;;30.32;30.93
22647;BME280;11490;42.726;23.268;2023-08-30T12:35:05;94254.22;;;30.22;28.66
22647;BME280;11490;42.726;23.268;2023-08-30T12:37:31;94274.72;;;30.36;30.34
22647;BME280;11490;42.726;23.268;2023-08-30T12:39:56;94254.59;;;30.17;31.06
22647;BME280;11490;42.726;23.268;2023-08-30T12:42:22;94247.97;;;30.26;31.53
22647;BME280;11490;42.726;23.268;2023-08-30T12:44:47;94228.34;;;30.38;32.23
22647;BME280;11490;42.726;23.268;2023-08-30T12:47:12;94245.66;;;30.35;32.25
22647;BME280;11490;42.726;23.268;2023-08-30T12:49:39;94241.34;;;30.41;30.55
22647;BME280;11490;42.726;23.268;2023-08-30T12:52:05;94244.84;;;30.38;30.27
22647;BME280;11490;42.726;23.268;2023-08-30T12:54:32;94249.19;;;30.39;31.04
22647;BME280;11490;42.726;23.268;2023-08-30T12:56:57;94247.28;;;30.50;29.78
22647;BME280;11490;42.726;23.268;2023-08-30T12:59:22;94227.56;;;30.34;30.18
22647;BME280;11490;42.726;23.268;2023-08-30T13:01:48;94246.50;;;30.49;30.39
22647;BME280;11490;42.726;23.268;2023-08-30T13:04:13;94254.66;;;30.32;29.09
22647;BME280;11490;42.726;23.268;2023-08-30T13:06:39;94242.09;;;30.31;30.59
22647;BME280;11490;42.726;23.268;2023-08-30T13:09:04;94248.78;;;30.37;30.48
22647;BME280;11490;42.726;23.268;2023-08-30T13:11:29;94236.97;;;30.33;31.17
22647;BME280;11490;42.726;23.268;2023-08-30T13:13:57;94216.13;;;30.25;30.08
22647;BME280;11490;42.726;23.268;2023-08-30T13:16:23;94240.09;;;30.28;29.75
22647;BME280;11490;42.726;23.268;2023-08-30T13:18:49;94240.91;;;30.32;29.34
22647;BME280;11490;42.726;23.268;2023-08-30T13:21:14;94248.03;;;30.40;28.48
22647;BME280;11490;42.726;23.268;2023-08-30T13:23:39;94244.88;;;30.45;30.28
22647;BME280;11490;42.726;23.268;2023-08-30T13:26:05;94243.25;;;30.26;30.34
22647;BME280;11490;42.726;23.268;2023-08-30T13:28:30;94243.94;;;30.12;29.57
22647;BME280;11490;42.726;23.268;2023-08-30T13:30:56;94237.72;;;30.22;30.30
22647;BME280;11490;42.726;23.268;2023-08-30T13:33:22;94240.09;;;30.28;30.14
22647;BME280;11490;42.726;23.268;2023-08-30T13:35:50;94241.28;;;30.27;30.29
22647;BME280;11490;42.726;23.268;2023-08-30T13:38:19;94230.66;;;30.29;30.07
22647;BME280;11490;42.726;23.268;2023-08-30T13:40:44;94250.78;;;30.47;30.80
22647;BME280;11490;42.726;23.268;2023-08-30T13:43:10;94245.63;;;30.31;30.61
22647;BME280;11490;42.726;23.268;2023-08-30T13:45:35;94236.50;;;30.16;30.97
22647;BME280;11490;42.726;23.268;2023-08-30T13:48:01;94243.19;;;30.15;31.15
22647;BME280;11490;42.726;23.268;2023-08-30T13:50:27;94246.63;;;29.98;30.57
22647;BME280;11490;42.726;23.268;2023-08-30T13:52:56;94245.34;;;29.85;30.67
22647;BME280;11490;42.726;23.268;2023-08-30T13:55:21;94256.38;;;29.92;31.36
22647;BME280;11490;42.726;23.268;2023-08-30T13:57:47;94252.50;;;29.93;30.59
22647;BME280;11490;42.726;23.268;2023-08-30T14:00:13;94250.88;;;29.92;30.98
22647;BME280;11490;42.726;23.268;2023-08-30T14:02:38;94247.63;;;29.76;32.11
22647;BME280;11490;42.726;23.268;2023-08-30T14:05:04;94243.69;;;29.73;31.41
22647;BME280;11490;42.726;23.268;2023-08-30T14:07:30;94268.13;;;29.89;31.53
22647;BME280;11490;42.726;23.268;2023-08-30T14:09:55;94261.88;;;29.89;31.13
22647;BME280;11490;42.726;23.268;2023-08-30T14:12:21;94257.13;;;29.89;31.32
22647;BME280;11490;42.726;23.268;2023-08-30T14:14:46;94257.41;;;29.70;31.80